TAF EGTC 050753Z 0507/0515 24018G30KT 9999 SCT015
TEMPO 0507/0514 BKN014
From batch tds/tafs/production/2024/2/5/h08_m00_tafs.cache.xml.gz
Issued (18 days ago)
Forecasts
0507/0515 24018G30KT 6+SM SCT1500

---
fcst_time_to: '2024-02-05T15:00:00Z'
wind_gust_kt: '30'
sky_condition:
- sky_cover: SCT
  cloud_base_ft_agl: '1500'
wind_speed_kt: '18'
fcst_time_from: '2024-02-05T07:00:00Z'
wind_dir_degrees: '240'
visibility_statute_mi: 6+

TEMPO 0507/0514 BKN1400

---
fcst_time_to: '2024-02-05T14:00:00Z'
sky_condition:
- sky_cover: BKN
  cloud_base_ft_agl: '1400'
fcst_time_from: '2024-02-05T07:00:00Z'
change_indicator: TEMPO

talk